sensor_id;sensor_type;location;lat;lon;timestamp;P1;durP1;ratioP1;P2;durP2;ratioP2
15183;SDS011;7693;49.266;7.104;2022-12-07T06:05:47;17.13;;;12.67;;
15183;SDS011;7693;49.266;7.104;2022-12-07T06:08:13;24.17;;;16.77;;
15183;SDS011;7693;49.266;7.104;2022-12-07T06:10:40;18.27;;;13.27;;
15183;SDS011;7693;49.266;7.104;2022-12-07T06:13:06;13.93;;;11.33;;
15183;SDS011;7693;49.266;7.104;2022-12-07T06:15:33;20.37;;;12.20;;
15183;SDS011;7693;49.266;7.104;2022-12-07T06:18:01;15.30;;;11.57;;
15183;SDS011;7693;49.266;7.104;2022-12-07T06:20:26;12.93;;;10.80;;
15183;SDS011;7693;49.266;7.104;2022-12-07T06:22:52;14.63;;;11.80;;
15183;SDS011;7693;49.266;7.104;2022-12-07T06:25:17;17.60;;;12.83;;
15183;SDS011;7693;49.266;7.104;2022-12-07T06:27:43;14.27;;;12.23;;
15183;SDS011;7693;49.266;7.104;2022-12-07T06:30:08;15.17;;;12.60;;
15183;SDS011;7693;49.266;7.104;2022-12-07T06:32:35;20.20;;;13.33;;
15183;SDS011;7693;49.266;7.104;2022-12-07T06:35:01;15.80;;;12.87;;
15183;SDS011;7693;49.266;7.104;2022-12-07T06:37:27;18.50;;;13.37;;
15183;SDS011;7693;49.266;7.104;2022-12-07T06:39:53;15.93;;;13.13;;
15183;SDS011;7693;49.266;7.104;2022-12-07T06:42:18;16.50;;;13.23;;
15183;SDS011;7693;49.266;7.104;2022-12-07T06:44:44;17.90;;;12.97;;
15183;SDS011;7693;49.266;7.104;2022-12-07T06:47:09;18.37;;;13.57;;
15183;SDS011;7693;49.266;7.104;2022-12-07T06:49:36;15.87;;;13.10;;
15183;SDS011;7693;49.266;7.104;2022-12-07T06:52:04;22.33;;;15.97;;
15183;SDS011;7693;49.266;7.104;2022-12-07T06:54:30;17.27;;;14.07;;
15183;SDS011;7693;49.266;7.104;2022-12-07T06:56:56;16.57;;;13.23;;
15183;SDS011;7693;49.266;7.104;2022-12-07T06:59:22;20.43;;;14.27;;
15183;SDS011;7693;49.266;7.104;2022-12-07T07:01:47;17.93;;;13.83;;
15183;SDS011;7693;49.266;7.104;2022-12-07T07:04:13;20.10;;;14.07;;
15183;SDS011;7693;49.266;7.104;2022-12-07T07:06:38;18.60;;;14.13;;
15183;SDS011;7693;49.266;7.104;2022-12-07T07:09:04;17.77;;;13.80;;
15183;SDS011;7693;49.266;7.104;2022-12-07T07:11:29;16.90;;;13.27;;
15183;SDS011;7693;49.266;7.104;2022-12-07T07:13:55;19.50;;;14.43;;
15183;SDS011;7693;49.266;7.104;2022-12-07T07:16:23;19.73;;;14.97;;
15183;SDS011;7693;49.266;7.104;2022-12-07T07:18:49;22.07;;;13.83;;
15183;SDS011;7693;49.266;7.104;2022-12-07T07:21:15;18.17;;;14.70;;
15183;SDS011;7693;49.266;7.104;2022-12-07T07:23:40;19.27;;;14.43;;
15183;SDS011;7693;49.266;7.104;2022-12-07T07:26:08;21.13;;;14.80;;
15183;SDS011;7693;49.266;7.104;2022-12-07T07:28:34;18.30;;;14.87;;
15183;SDS011;7693;49.266;7.104;2022-12-07T07:31:00;20.30;;;13.97;;
15183;SDS011;7693;49.266;7.104;2022-12-07T07:33:25;18.57;;;13.97;;
15183;SDS011;7693;49.266;7.104;2022-12-07T07:35:51;17.37;;;14.40;;
15183;SDS011;7693;49.266;7.104;2022-12-07T07:38:16;21.87;;;16.40;;
15183;SDS011;7693;49.266;7.104;2022-12-07T07:40:42;20.23;;;15.20;;
15183;SDS011;7693;49.266;7.104;2022-12-07T07:43:07;18.23;;;13.90;;
15183;SDS011;7693;49.266;7.104;2022-12-07T07:45:33;21.57;;;14.70;;
15183;SDS011;7693;49.266;7.104;2022-12-07T07:47:58;16.97;;;14.70;;
15183;SDS011;7693;49.266;7.104;2022-12-07T07:50:24;17.73;;;14.90;;
15183;SDS011;7693;49.266;7.104;2022-12-07T07:52:50;19.63;;;15.30;;
15183;SDS011;7693;49.266;7.104;2022-12-07T07:55:17;22.67;;;16.37;;
15183;SDS011;7693;49.266;7.104;2022-12-07T07:57:42;23.60;;;15.63;;
15183;SDS011;7693;49.266;7.104;2022-12-07T08:00:09;20.13;;;15.70;;
15183;SDS011;7693;49.266;7.104;2022-12-07T08:02:36;20.17;;;15.97;;
15183;SDS011;7693;49.266;7.104;2022-12-07T08:05:02;23.30;;;16.43;;
15183;SDS011;7693;49.266;7.104;2022-12-07T08:07:28;22.00;;;16.33;;
15183;SDS011;7693;49.266;7.104;2022-12-07T08:09:54;23.00;;;17.53;;
15183;SDS011;7693;49.266;7.104;2022-12-07T08:12:22;22.83;;;16.93;;
15183;SDS011;7693;49.266;7.104;2022-12-07T08:14:50;23.23;;;17.73;;
15183;SDS011;7693;49.266;7.104;2022-12-07T08:17:16;26.57;;;18.03;;
15183;SDS011;7693;49.266;7.104;2022-12-07T08:19:42;27.50;;;18.47;;
15183;SDS011;7693;49.266;7.104;2022-12-07T08:22:07;22.97;;;18.23;;
15183;SDS011;7693;49.266;7.104;2022-12-07T08:24:33;23.97;;;17.03;;
15183;SDS011;7693;49.266;7.104;2022-12-07T08:26:59;22.03;;;17.30;;
15183;SDS011;7693;49.266;7.104;2022-12-07T08:29:25;31.23;;;19.17;;
15183;SDS011;7693;49.266;7.104;2022-12-07T08:31:51;26.70;;;17.57;;
15183;SDS011;7693;49.266;7.104;2022-12-07T08:34:16;25.33;;;18.13;;
15183;SDS011;7693;49.266;7.104;2022-12-07T08:36:42;23.63;;;18.20;;
15183;SDS011;7693;49.266;7.104;2022-12-07T08:39:07;27.57;;;18.10;;
15183;SDS011;7693;49.266;7.104;2022-12-07T08:41:33;26.47;;;18.57;;
15183;SDS011;7693;49.266;7.104;2022-12-07T08:43:59;26.73;;;19.43;;
15183;SDS011;7693;49.266;7.104;2022-12-07T08:46:25;30.73;;;20.00;;
15183;SDS011;7693;49.266;7.104;2022-12-07T08:49:22;23.07;;;17.60;;
15183;SDS011;7693;49.266;7.104;2022-12-07T08:51:52;23.33;;;17.90;;
15183;SDS011;7693;49.266;7.104;2022-12-07T08:54:19;24.97;;;18.20;;
15183;SDS011;7693;49.266;7.104;2022-12-07T08:56:45;25.40;;;18.27;;
15183;SDS011;7693;49.266;7.104;2022-12-07T08:59:12;27.07;;;18.87;;
15183;SDS011;7693;49.266;7.104;2022-12-07T09:01:41;25.17;;;18.37;;
15183;SDS011;7693;49.266;7.104;2022-12-07T09:04:06;26.97;;;18.90;;
15183;SDS011;7693;49.266;7.104;2022-12-07T09:06:32;28.10;;;18.67;;
15183;SDS011;7693;49.266;7.104;2022-12-07T09:08:58;27.33;;;18.03;;
15183;SDS011;7693;49.266;7.104;2022-12-07T09:11:25;25.30;;;18.50;;
15183;SDS011;7693;49.266;7.104;2022-12-07T09:13:51;25.70;;;18.50;;
15183;SDS011;7693;49.266;7.104;2022-12-07T09:16:17;26.10;;;18.17;;
15183;SDS011;7693;49.266;7.104;2022-12-07T09:18:42;27.70;;;18.43;;
15183;SDS011;7693;49.266;7.104;2022-12-07T09:21:08;22.73;;;17.63;;
15183;SDS011;7693;49.266;7.104;2022-12-07T09:23:34;26.10;;;17.57;;
15183;SDS011;7693;49.266;7.104;2022-12-07T09:26:03;25.33;;;19.13;;
15183;SDS011;7693;49.266;7.104;2022-12-07T09:28:30;31.53;;;20.60;;
15183;SDS011;7693;49.266;7.104;2022-12-07T09:30:56;27.77;;;19.00;;
15183;SDS011;7693;49.266;7.104;2022-12-07T09:33:22;28.33;;;19.57;;
15183;SDS011;7693;49.266;7.104;2022-12-07T09:35:48;26.63;;;18.70;;
15183;SDS011;7693;49.266;7.104;2022-12-07T09:38:15;23.90;;;19.03;;
15183;SDS011;7693;49.266;7.104;2022-12-07T09:40:41;26.03;;;18.63;;
15183;SDS011;7693;49.266;7.104;2022-12-07T09:43:21;27.90;;;18.10;;
15183;SDS011;7693;49.266;7.104;2022-12-07T09:45:53;25.63;;;18.53;;
15183;SDS011;7693;49.266;7.104;2022-12-07T09:48:21;29.27;;;19.47;;
15183;SDS011;7693;49.266;7.104;2022-12-07T09:51:02;25.10;;;18.20;;
15183;SDS011;7693;49.266;7.104;2022-12-07T09:53:34;26.03;;;19.13;;
15183;SDS011;7693;49.266;7.104;2022-12-07T09:56:02;27.97;;;18.47;;
15183;SDS011;7693;49.266;7.104;2022-12-07T09:58:29;26.60;;;17.10;;
15183;SDS011;7693;49.266;7.104;2022-12-07T10:00:57;24.87;;;16.93;;
15183;SDS011;7693;49.266;7.104;2022-12-07T10:03:28;24.80;;;17.83;;
15183;SDS011;7693;49.266;7.104;2022-12-07T10:05:54;28.37;;;17.67;;
15183;SDS011;7693;49.266;7.104;2022-12-07T10:08:21;21.40;;;16.53;;
15183;SDS011;7693;49.266;7.104;2022-12-07T10:10:49;27.67;;;17.03;;
15183;SDS011;7693;49.266;7.104;2022-12-07T10:13:22;23.90;;;17.43;;
15183;SDS011;7693;49.266;7.104;2022-12-07T10:15:59;22.90;;;16.77;;
15183;SDS011;7693;49.266;7.104;2022-12-07T10:21:09;25.00;;;17.50;;
15183;SDS011;7693;49.266;7.104;2022-12-07T10:23:39;24.50;;;17.77;;
15183;SDS011;7693;49.266;7.104;2022-12-07T10:28:53;23.67;;;18.03;;
15183;SDS011;7693;49.266;7.104;2022-12-07T10:31:20;25.63;;;17.53;;
15183;SDS011;7693;49.266;7.104;2022-12-07T10:33:48;25.93;;;18.07;;
15183;SDS011;7693;49.266;7.104;2022-12-07T10:38:52;24.70;;;17.97;;
15183;SDS011;7693;49.266;7.104;2022-12-07T10:41:23;25.10;;;18.20;;
15183;SDS011;7693;49.266;7.104;2022-12-07T10:43:49;22.33;;;17.60;;
15183;SDS011;7693;49.266;7.104;2022-12-07T10:51:50;26.93;;;17.77;;
15183;SDS011;7693;49.266;7.104;2022-12-07T10:54:45;24.57;;;17.03;;
15183;SDS011;7693;49.266;7.104;2022-12-07T10:57:40;26.23;;;18.00;;
15183;SDS011;7693;49.266;7.104;2022-12-07T11:00:21;23.63;;;17.13;;
15183;SDS011;7693;49.266;7.104;2022-12-07T11:05:35;21.67;;;16.63;;
15183;SDS011;7693;49.266;7.104;2022-12-07T19:57:34;18.67;;;12.53;;
15183;SDS011;7693;49.266;7.104;2022-12-07T20:00:00;19.03;;;13.27;;
15183;SDS011;7693;49.266;7.104;2022-12-07T20:02:25;15.87;;;12.30;;
15183;SDS011;7693;49.266;7.104;2022-12-07T20:04:51;17.03;;;12.63;;
15183;SDS011;7693;49.266;7.104;2022-12-07T20:07:16;17.47;;;12.07;;
15183;SDS011;7693;49.266;7.104;2022-12-07T20:09:42;17.80;;;12.87;;
15183;SDS011;7693;49.266;7.104;2022-12-07T20:12:08;14.37;;;11.50;;
15183;SDS011;7693;49.266;7.104;2022-12-07T20:14:53;19.83;;;12.97;;
15183;SDS011;7693;49.266;7.104;2022-12-07T20:17:18;20.43;;;15.10;;
15183;SDS011;7693;49.266;7.104;2022-12-07T20:19:44;16.90;;;12.60;;
15183;SDS011;7693;49.266;7.104;2022-12-07T20:22:09;28.10;;;21.43;;
15183;SDS011;7693;49.266;7.104;2022-12-07T20:24:35;16.77;;;12.07;;
15183;SDS011;7693;49.266;7.104;2022-12-07T20:27:01;18.30;;;13.40;;
15183;SDS011;7693;49.266;7.104;2022-12-07T20:29:28;15.97;;;12.27;;
15183;SDS011;7693;49.266;7.104;2022-12-07T20:31:53;14.83;;;12.57;;
15183;SDS011;7693;49.266;7.104;2022-12-07T20:34:19;15.10;;;11.80;;
15183;SDS011;7693;49.266;7.104;2022-12-07T20:36:45;15.27;;;11.80;;
15183;SDS011;7693;49.266;7.104;2022-12-07T20:39:11;15.17;;;12.00;;
15183;SDS011;7693;49.266;7.104;2022-12-07T20:41:37;14.73;;;12.40;;
15183;SDS011;7693;49.266;7.104;2022-12-07T20:44:21;12.97;;;10.73;;
15183;SDS011;7693;49.266;7.104;2022-12-07T20:46:47;15.57;;;12.27;;
15183;SDS011;7693;49.266;7.104;2022-12-07T20:49:13;16.57;;;12.60;;
15183;SDS011;7693;49.266;7.104;2022-12-07T20:51:40;15.40;;;12.13;;
15183;SDS011;7693;49.266;7.104;2022-12-07T20:54:07;14.33;;;11.33;;
15183;SDS011;7693;49.266;7.104;2022-12-07T20:56:32;14.57;;;11.57;;
15183;SDS011;7693;49.266;7.104;2022-12-07T20:59:00;12.63;;;11.33;;
15183;SDS011;7693;49.266;7.104;2022-12-07T21:01:27;15.23;;;11.53;;
15183;SDS011;7693;49.266;7.104;2022-12-07T21:03:54;13.53;;;11.43;;
15183;SDS011;7693;49.266;7.104;2022-12-07T21:06:20;24.93;;;12.70;;
15183;SDS011;7693;49.266;7.104;2022-12-07T21:08:50;16.37;;;11.50;;
15183;SDS011;7693;49.266;7.104;2022-12-07T21:11:18;13.00;;;11.53;;
15183;SDS011;7693;49.266;7.104;2022-12-07T21:13:44;16.27;;;12.33;;
15183;SDS011;7693;49.266;7.104;2022-12-07T21:16:11;15.20;;;11.93;;
15183;SDS011;7693;49.266;7.104;2022-12-07T21:18:39;14.03;;;11.20;;
15183;SDS011;7693;49.266;7.104;2022-12-07T21:21:05;13.53;;;11.40;;
15183;SDS011;7693;49.266;7.104;2022-12-07T21:23:33;13.83;;;11.37;;
15183;SDS011;7693;49.266;7.104;2022-12-07T21:25:58;13.83;;;10.80;;
15183;SDS011;7693;49.266;7.104;2022-12-07T21:28:24;18.97;;;12.17;;
15183;SDS011;7693;49.266;7.104;2022-12-07T21:30:54;11.73;;;10.13;;
15183;SDS011;7693;49.266;7.104;2022-12-07T21:33:26;13.70;;;10.20;;
15183;SDS011;7693;49.266;7.104;2022-12-07T21:35:52;13.37;;;10.97;;
15183;SDS011;7693;49.266;7.104;2022-12-07T21:38:17;13.67;;;11.60;;
15183;SDS011;7693;49.266;7.104;2022-12-07T21:40:43;12.43;;;10.13;;
15183;SDS011;7693;49.266;7.104;2022-12-07T21:43:09;14.73;;;10.67;;
15183;SDS011;7693;49.266;7.104;2022-12-07T21:45:34;12.07;;;10.37;;
15183;SDS011;7693;49.266;7.104;2022-12-07T21:48:03;13.67;;;10.70;;
15183;SDS011;7693;49.266;7.104;2022-12-07T21:50:29;12.97;;;10.83;;
15183;SDS011;7693;49.266;7.104;2022-12-07T21:52:54;12.73;;;10.20;;
15183;SDS011;7693;49.266;7.104;2022-12-07T21:55:20;13.50;;;10.27;;
15183;SDS011;7693;49.266;7.104;2022-12-07T21:57:45;12.83;;;10.17;;
15183;SDS011;7693;49.266;7.104;2022-12-07T22:00:11;20.03;;;11.30;;
15183;SDS011;7693;49.266;7.104;2022-12-07T22:02:37;12.40;;;9.57;;
15183;SDS011;7693;49.266;7.104;2022-12-07T22:05:05;11.00;;;9.53;;
15183;SDS011;7693;49.266;7.104;2022-12-07T22:07:31;13.77;;;9.70;;
15183;SDS011;7693;49.266;7.104;2022-12-07T22:09:57;11.73;;;9.47;;
15183;SDS011;7693;49.266;7.104;2022-12-07T22:12:23;12.67;;;8.87;;
15183;SDS011;7693;49.266;7.104;2022-12-07T22:14:48;12.00;;;8.80;;
15183;SDS011;7693;49.266;7.104;2022-12-07T22:17:34;13.77;;;9.53;;
15183;SDS011;7693;49.266;7.104;2022-12-07T22:19:59;12.07;;;8.87;;
15183;SDS011;7693;49.266;7.104;2022-12-07T22:22:25;12.50;;;9.80;;
15183;SDS011;7693;49.266;7.104;2022-12-07T22:24:51;11.20;;;9.10;;
15183;SDS011;7693;49.266;7.104;2022-12-07T22:27:16;10.20;;;8.97;;
15183;SDS011;7693;49.266;7.104;2022-12-07T22:29:42;9.40;;;8.40;;
15183;SDS011;7693;49.266;7.104;2022-12-07T22:32:08;11.00;;;8.37;;
15183;SDS011;7693;49.266;7.104;2022-12-07T22:34:34;9.90;;;8.47;;
15183;SDS011;7693;49.266;7.104;2022-12-07T22:36:59;9.20;;;8.30;;
15183;SDS011;7693;49.266;7.104;2022-12-07T22:39:25;10.63;;;8.80;;
15183;SDS011;7693;49.266;7.104;2022-12-07T22:41:51;11.43;;;8.90;;
15183;SDS011;7693;49.266;7.104;2022-12-07T22:44:16;12.93;;;8.27;;
15183;SDS011;7693;49.266;7.104;2022-12-07T22:46:43;12.57;;;8.97;;
15183;SDS011;7693;49.266;7.104;2022-12-07T22:49:09;9.53;;;8.63;;
15183;SDS011;7693;49.266;7.104;2022-12-07T22:51:36;11.43;;;8.23;;
15183;SDS011;7693;49.266;7.104;2022-12-07T22:54:04;9.40;;;8.50;;
15183;SDS011;7693;49.266;7.104;2022-12-07T22:56:32;11.53;;;9.53;;
15183;SDS011;7693;49.266;7.104;2022-12-07T22:58:59;9.97;;;8.20;;
15183;SDS011;7693;49.266;7.104;2022-12-07T23:01:25;9.87;;;8.97;;
15183;SDS011;7693;49.266;7.104;2022-12-07T23:03:51;13.23;;;7.97;;
15183;SDS011;7693;49.266;7.104;2022-12-07T23:06:19;9.43;;;8.33;;
15183;SDS011;7693;49.266;7.104;2022-12-07T23:08:50;12.43;;;8.80;;
15183;SDS011;7693;49.266;7.104;2022-12-07T23:11:17;10.17;;;9.00;;
15183;SDS011;7693;49.266;7.104;2022-12-07T23:14:03;9.40;;;8.37;;
15183;SDS011;7693;49.266;7.104;2022-12-07T23:16:40;13.77;;;9.23;;
15183;SDS011;7693;49.266;7.104;2022-12-07T23:19:06;10.57;;;8.30;;
15183;SDS011;7693;49.266;7.104;2022-12-07T23:21:32;12.47;;;9.00;;
15183;SDS011;7693;49.266;7.104;2022-12-07T23:23:57;11.70;;;8.57;;
15183;SDS011;7693;49.266;7.104;2022-12-07T23:26:23;10.80;;;8.10;;
15183;SDS011;7693;49.266;7.104;2022-12-07T23:28:49;10.97;;;7.97;;
15183;SDS011;7693;49.266;7.104;2022-12-07T23:31:20;12.37;;;7.50;;
